Center Junction, IA

11:29 PM CDT on July 27, 2014 (GMT -0500)
Monticello Regional (KMXO) Elev 850 ft | 42.22 °N, 91.16 °W | Change Station

Current weather conditions updated 14 minutes ago

Clear
Clear
64 °F
Feels Like 64 °F
N
6
Wind Variable Wind from NNW

Tomorrow is forecast to be nearly the same temperature as today.

Today
High -- | Low -- °F
--% Chance of Precip.
Yesterday
High -- | Low -- °F
Precip. -- in
5:52 AM 8:28 PM
New Moon, 1% visible
Pressure 30.00 in
Visibility 10.0 miles
Clouds Clear
Dew Point 61 °F
Humidity 88%
Rainfall 0.00 in
Snow Depth Not available.
UV 0 out of 12
Pollen 6.70 out of 12
Air Quality Not available.
Flu Activity Not available.
METAR KMXO 280415Z AUTO 33005KT 10SM CLR 18/16 A3000 RMK AO2

More Conditions Fewer Conditions

Pressure 30.00 in
Visibility 10.0 miles
Clouds Clear
Dew Point 61 °F
Humidity 88%
Rainfall 0.00 in
Snow Depth Not available.
UV 0 out of 12
Pollen 6.70 out of 12
Air Quality Not available.
Flu Activity Not available.
METAR KMXO 280415Z AUTO 33005KT 10SM CLR 18/16 A3000 RMK AO2

More Conditions Fewer Conditions

10-Day Weather Forecast

Almanac

Astronomy

Jul. 27, 2014 Rise Set
Actual Time 5:52 AM CDT 8:28 PM CDT
Civil Twilight 5:20 AM CDT 9:00 PM CDT
Nautical Twilight 4:40 AM CDT 9:40 PM CDT
Astronomical Twilight 3:54 AM CDT 10:25 PM CDT
Moon 6:41 AM CDT (7/27) 8:35 PM CDT (7/27)
Length of Visible Light 15h 39m
Length of Day
14h 35m
Tomorrow will be 2m 0s shorter.
New Moon, 1% of the Moon is Illuminated
Jul 28
New Moon
Aug 3
First Quarter
Aug 10
Full
Aug 17
Last Quarter
Aug 25
New

Today's Extremes

State Highs State Lows

Community

WunderPhotos

Upload Photos

1,738,300 photos uploaded!

Nearby

Snow Depth

Station Depth Elevation
No new snow has been reported.

Earthquake Activity

City Distance Mag. Time & Date
No recent earthquake activity has been reported nearby.
Minimum magnitude displayed is 2.5.

Coastal Water Temperatures

Place Temperature
No Stations Reporting

Nearby Weather Stations

Station Location Temp. Heat Index Dew Point Humidity Wind Precip. Elev Updated Type
OLIN, Olin, IA 70.6 °F 73 °F 62 °F 75% WNW  at  9.2 mph 0.00 in / hr 801 ft 8:28 PM CDT Rapid Fire
Olin, Iowa, Olin, IA 68.5 °F - 61 °F 78% WSW  at  1.7 mph - / hr 753 ft 9:47 PM CDT Normal
MesoWest MECHN1 , Mechanicsville, IA 68 °F - - - North  at  - 0.00 in / hr 899 ft 7:35 PM CDT MADIS
Lisbon, IA 64.6 °F - 56 °F 75% WNW  at  2.7 mph - / hr 856 ft 11:26 PM CDT Normal
Nightowl News ( MAQ Middle School), Maquoketa, IA 54.1 °F - 45 °F 72% ESE  at  0.0 mph - / hr 755 ft 11:22 PM CDT Normal
Center of Cedar County, Tipton, IA 64.5 °F - 61 °F 88% NNW  at  1.0 mph 0.00 in / hr 823 ft 11:28 PM CDT Rapid Fire
Jim Greif Farm.1 mile north of, Priarieburg, IA 62.4 °F - 60 °F 92% NE  at  5.0 mph 0.00 in / hr 958 ft 11:21 PM CDT Normal

Show More Stations Show Fewer Stations